sensor_id;sensor_type;location;lat;lon;timestamp;pressure;altitude;pressure_sealevel;temperature
34807;BMP180;18310;55.586;12.286;2022-09-09T00:00:19;101015.00;;;21.50
34807;BMP180;18310;55.586;12.286;2022-09-09T00:03:27;101007.00;;;21.50
34807;BMP180;18310;55.586;12.286;2022-09-09T00:06:46;101009.00;;;21.50
34807;BMP180;18310;55.586;12.286;2022-09-09T00:10:05;100996.00;;;21.50
34807;BMP180;18310;55.586;12.286;2022-09-09T00:13:20;100995.00;;;21.50
34807;BMP180;18310;55.586;12.286;2022-09-09T00:16:32;100997.00;;;21.50
34807;BMP180;18310;55.586;12.286;2022-09-09T00:19:45;100993.00;;;21.50
34807;BMP180;18310;55.586;12.286;2022-09-09T00:23:03;100984.00;;;21.50
34807;BMP180;18310;55.586;12.286;2022-09-09T00:26:16;100984.00;;;21.50
34807;BMP180;18310;55.586;12.286;2022-09-09T00:29:28;100974.00;;;21.40
34807;BMP180;18310;55.586;12.286;2022-09-09T00:32:35;100966.00;;;21.40
34807;BMP180;18310;55.586;12.286;2022-09-09T00:35:42;100959.00;;;21.40
34807;BMP180;18310;55.586;12.286;2022-09-09T00:38:52;100960.00;;;21.40
34807;BMP180;18310;55.586;12.286;2022-09-09T00:42:14;100959.00;;;21.30
34807;BMP180;18310;55.586;12.286;2022-09-09T00:45:48;100953.00;;;21.30
34807;BMP180;18310;55.586;12.286;2022-09-09T00:49:09;100941.00;;;21.30
34807;BMP180;18310;55.586;12.286;2022-09-09T00:52:32;100936.00;;;21.30
34807;BMP180;18310;55.586;12.286;2022-09-09T00:55:45;100947.00;;;21.30
34807;BMP180;18310;55.586;12.286;2022-09-09T00:59:00;100944.00;;;21.20
34807;BMP180;18310;55.586;12.286;2022-09-09T01:02:21;100937.00;;;21.30
34807;BMP180;18310;55.586;12.286;2022-09-09T01:05:34;100929.00;;;21.30
34807;BMP180;18310;55.586;12.286;2022-09-09T01:12:25;100910.00;;;21.30
34807;BMP180;18310;55.586;12.286;2022-09-09T01:15:32;100909.00;;;21.30
34807;BMP180;18310;55.586;12.286;2022-09-09T01:18:43;100919.00;;;21.30
34807;BMP180;18310;55.586;12.286;2022-09-09T01:21:56;100918.00;;;21.30
34807;BMP180;18310;55.586;12.286;2022-09-09T01:25:29;100913.00;;;21.30
34807;BMP180;18310;55.586;12.286;2022-09-09T01:28:35;100910.00;;;21.40
34807;BMP180;18310;55.586;12.286;2022-09-09T01:31:43;100900.00;;;21.40
34807;BMP180;18310;55.586;12.286;2022-09-09T01:34:54;100910.00;;;21.40
34807;BMP180;18310;55.586;12.286;2022-09-09T01:37:58;100907.00;;;21.50
34807;BMP180;18310;55.586;12.286;2022-09-09T01:41:01;100908.00;;;21.60
34807;BMP180;18310;55.586;12.286;2022-09-09T01:44:08;100903.00;;;21.70
34807;BMP180;18310;55.586;12.286;2022-09-09T01:47:11;100894.00;;;21.70
34807;BMP180;18310;55.586;12.286;2022-09-09T01:50:16;100883.00;;;21.80
34807;BMP180;18310;55.586;12.286;2022-09-09T01:53:21;100887.00;;;21.80
34807;BMP180;18310;55.586;12.286;2022-09-09T01:56:38;100890.00;;;21.80
34807;BMP180;18310;55.586;12.286;2022-09-09T02:00:03;100886.00;;;21.90
34807;BMP180;18310;55.586;12.286;2022-09-09T02:03:20;100873.00;;;21.80
34807;BMP180;18310;55.586;12.286;2022-09-09T02:06:31;100871.00;;;21.80
34807;BMP180;18310;55.586;12.286;2022-09-09T02:09:38;100867.00;;;21.80
34807;BMP180;18310;55.586;12.286;2022-09-09T02:12:47;100862.00;;;21.80
34807;BMP180;18310;55.586;12.286;2022-09-09T02:15:58;100865.00;;;21.80
34807;BMP180;18310;55.586;12.286;2022-09-09T02:19:10;100863.00;;;21.80
34807;BMP180;18310;55.586;12.286;2022-09-09T02:22:17;100860.00;;;21.80
34807;BMP180;18310;55.586;12.286;2022-09-09T02:25:27;100852.00;;;21.80
34807;BMP180;18310;55.586;12.286;2022-09-09T02:28:34;100832.00;;;21.70
34807;BMP180;18310;55.586;12.286;2022-09-09T02:31:43;100839.00;;;21.80
34807;BMP180;18310;55.586;12.286;2022-09-09T02:34:54;100832.00;;;21.80
34807;BMP180;18310;55.586;12.286;2022-09-09T02:38:03;100846.00;;;21.80
34807;BMP180;18310;55.586;12.286;2022-09-09T02:41:06;100843.00;;;21.90
34807;BMP180;18310;55.586;12.286;2022-09-09T02:44:11;100836.00;;;21.90
34807;BMP180;18310;55.586;12.286;2022-09-09T02:47:33;100830.00;;;22.00
34807;BMP180;18310;55.586;12.286;2022-09-09T02:50:48;100836.00;;;22.10
34807;BMP180;18310;55.586;12.286;2022-09-09T02:54:04;100825.00;;;22.20
34807;BMP180;18310;55.586;12.286;2022-09-09T02:57:17;100833.00;;;22.30
34807;BMP180;18310;55.586;12.286;2022-09-09T03:00:24;100816.00;;;22.30
34807;BMP180;18310;55.586;12.286;2022-09-09T03:03:29;100839.00;;;22.40
34807;BMP180;18310;55.586;12.286;2022-09-09T03:06:33;100832.00;;;22.40
34807;BMP180;18310;55.586;12.286;2022-09-09T03:09:37;100833.00;;;22.40
34807;BMP180;18310;55.586;12.286;2022-09-09T03:12:40;100822.00;;;22.50
34807;BMP180;18310;55.586;12.286;2022-09-09T03:15:44;100824.00;;;22.50
34807;BMP180;18310;55.586;12.286;2022-09-09T03:18:49;100822.00;;;22.60
34807;BMP180;18310;55.586;12.286;2022-09-09T03:21:53;100823.00;;;22.60
34807;BMP180;18310;55.586;12.286;2022-09-09T03:24:56;100834.00;;;22.60
34807;BMP180;18310;55.586;12.286;2022-09-09T03:28:00;100836.00;;;22.70
34807;BMP180;18310;55.586;12.286;2022-09-09T03:31:05;100829.00;;;22.70
34807;BMP180;18310;55.586;12.286;2022-09-09T03:34:14;100838.00;;;22.70
34807;BMP180;18310;55.586;12.286;2022-09-09T03:37:20;100829.00;;;22.70
34807;BMP180;18310;55.586;12.286;2022-09-09T03:40:24;100820.00;;;22.80
34807;BMP180;18310;55.586;12.286;2022-09-09T03:43:28;100821.00;;;22.80
34807;BMP180;18310;55.586;12.286;2022-09-09T03:46:32;100815.00;;;22.90
34807;BMP180;18310;55.586;12.286;2022-09-09T03:49:37;100814.00;;;22.90
34807;BMP180;18310;55.586;12.286;2022-09-09T03:52:42;100807.00;;;22.90
34807;BMP180;18310;55.586;12.286;2022-09-09T03:55:46;100821.00;;;23.00
34807;BMP180;18310;55.586;12.286;2022-09-09T03:58:50;100825.00;;;23.00
34807;BMP180;18310;55.586;12.286;2022-09-09T04:01:54;100818.00;;;22.90
34807;BMP180;18310;55.586;12.286;2022-09-09T04:05:00;100814.00;;;22.90
34807;BMP180;18310;55.586;12.286;2022-09-09T04:08:04;100824.00;;;22.90
34807;BMP180;18310;55.586;12.286;2022-09-09T04:11:07;100836.00;;;22.90
34807;BMP180;18310;55.586;12.286;2022-09-09T04:14:11;100827.00;;;22.90
34807;BMP180;18310;55.586;12.286;2022-09-09T04:17:14;100834.00;;;23.00
34807;BMP180;18310;55.586;12.286;2022-09-09T04:20:19;100835.00;;;23.10
34807;BMP180;18310;55.586;12.286;2022-09-09T04:23:25;100859.00;;;23.20
34807;BMP180;18310;55.586;12.286;2022-09-09T04:26:29;100855.00;;;23.20
34807;BMP180;18310;55.586;12.286;2022-09-09T04:29:32;100845.00;;;23.30
34807;BMP180;18310;55.586;12.286;2022-09-09T04:32:35;100852.00;;;23.40
34807;BMP180;18310;55.586;12.286;2022-09-09T04:35:45;100858.00;;;23.50
34807;BMP180;18310;55.586;12.286;2022-09-09T04:38:48;100858.00;;;23.50
34807;BMP180;18310;55.586;12.286;2022-09-09T04:41:52;100844.00;;;23.60
34807;BMP180;18310;55.586;12.286;2022-09-09T04:44:55;100849.00;;;23.60
34807;BMP180;18310;55.586;12.286;2022-09-09T04:47:58;100853.00;;;23.70
34807;BMP180;18310;55.586;12.286;2022-09-09T04:51:05;100855.00;;;23.80
34807;BMP180;18310;55.586;12.286;2022-09-09T04:54:09;100856.00;;;23.80
34807;BMP180;18310;55.586;12.286;2022-09-09T04:57:14;100847.00;;;23.80
34807;BMP180;18310;55.586;12.286;2022-09-09T05:00:20;100848.00;;;23.80
34807;BMP180;18310;55.586;12.286;2022-09-09T05:03:23;100856.00;;;23.90
34807;BMP180;18310;55.586;12.286;2022-09-09T05:06:29;100853.00;;;23.80
34807;BMP180;18310;55.586;12.286;2022-09-09T05:09:33;100854.00;;;23.80
34807;BMP180;18310;55.586;12.286;2022-09-09T05:12:36;100866.00;;;23.90
34807;BMP180;18310;55.586;12.286;2022-09-09T05:15:39;100867.00;;;23.90
34807;BMP180;18310;55.586;12.286;2022-09-09T05:18:46;100871.00;;;23.90
34807;BMP180;18310;55.586;12.286;2022-09-09T05:21:52;100877.00;;;23.90
34807;BMP180;18310;55.586;12.286;2022-09-09T05:24:55;100884.00;;;24.00
34807;BMP180;18310;55.586;12.286;2022-09-09T05:27:58;100880.00;;;24.00
34807;BMP180;18310;55.586;12.286;2022-09-09T05:31:06;100884.00;;;24.00
34807;BMP180;18310;55.586;12.286;2022-09-09T05:34:11;100890.00;;;24.00
34807;BMP180;18310;55.586;12.286;2022-09-09T05:37:16;100888.00;;;24.00
34807;BMP180;18310;55.586;12.286;2022-09-09T05:40:20;100892.00;;;24.00
34807;BMP180;18310;55.586;12.286;2022-09-09T05:43:25;100897.00;;;24.00
34807;BMP180;18310;55.586;12.286;2022-09-09T05:46:29;100904.00;;;24.00
34807;BMP180;18310;55.586;12.286;2022-09-09T05:49:33;100900.00;;;24.00
34807;BMP180;18310;55.586;12.286;2022-09-09T05:52:38;100907.00;;;24.00
34807;BMP180;18310;55.586;12.286;2022-09-09T05:55:41;100916.00;;;24.00
34807;BMP180;18310;55.586;12.286;2022-09-09T05:58:47;100914.00;;;24.10
34807;BMP180;18310;55.586;12.286;2022-09-09T06:01:51;100922.00;;;24.10
34807;BMP180;18310;55.586;12.286;2022-09-09T06:04:55;100928.00;;;24.10
34807;BMP180;18310;55.586;12.286;2022-09-09T06:08:03;100932.00;;;24.10
34807;BMP180;18310;55.586;12.286;2022-09-09T06:11:08;100941.00;;;24.20
34807;BMP180;18310;55.586;12.286;2022-09-09T06:14:12;100943.00;;;24.20
34807;BMP180;18310;55.586;12.286;2022-09-09T06:17:16;100951.00;;;24.20
34807;BMP180;18310;55.586;12.286;2022-09-09T06:20:19;100947.00;;;24.20
34807;BMP180;18310;55.586;12.286;2022-09-09T06:23:26;100944.00;;;24.20
34807;BMP180;18310;55.586;12.286;2022-09-09T06:26:32;100944.00;;;24.20
34807;BMP180;18310;55.586;12.286;2022-09-09T06:29:35;100937.00;;;24.20
34807;BMP180;18310;55.586;12.286;2022-09-09T06:32:39;100946.00;;;24.30
34807;BMP180;18310;55.586;12.286;2022-09-09T06:35:51;100945.00;;;24.30
34807;BMP180;18310;55.586;12.286;2022-09-09T06:38:56;100947.00;;;24.40
34807;BMP180;18310;55.586;12.286;2022-09-09T06:41:59;100952.00;;;24.40
34807;BMP180;18310;55.586;12.286;2022-09-09T06:45:11;100948.00;;;24.40
34807;BMP180;18310;55.586;12.286;2022-09-09T06:48:14;100952.00;;;24.40
34807;BMP180;18310;55.586;12.286;2022-09-09T06:51:20;100959.00;;;24.40
34807;BMP180;18310;55.586;12.286;2022-09-09T06:54:25;100962.00;;;24.40
34807;BMP180;18310;55.586;12.286;2022-09-09T06:57:28;100964.00;;;24.40
34807;BMP180;18310;55.586;12.286;2022-09-09T07:00:38;100960.00;;;24.40
34807;BMP180;18310;55.586;12.286;2022-09-09T07:03:45;100970.00;;;24.50
34807;BMP180;18310;55.586;12.286;2022-09-09T07:06:49;100968.00;;;24.60
34807;BMP180;18310;55.586;12.286;2022-09-09T07:09:55;100968.00;;;24.70
34807;BMP180;18310;55.586;12.286;2022-09-09T07:12:59;100979.00;;;24.80
34807;BMP180;18310;55.586;12.286;2022-09-09T07:16:04;100978.00;;;25.00
34807;BMP180;18310;55.586;12.286;2022-09-09T07:19:09;100979.00;;;25.10
34807;BMP180;18310;55.586;12.286;2022-09-09T07:22:13;100974.00;;;25.30
34807;BMP180;18310;55.586;12.286;2022-09-09T07:25:18;100974.00;;;25.50
34807;BMP180;18310;55.586;12.286;2022-09-09T07:28:23;100986.00;;;25.60
34807;BMP180;18310;55.586;12.286;2022-09-09T07:31:29;100981.00;;;25.70
34807;BMP180;18310;55.586;12.286;2022-09-09T07:34:33;100977.00;;;25.80
34807;BMP180;18310;55.586;12.286;2022-09-09T07:37:37;100987.00;;;25.90
34807;BMP180;18310;55.586;12.286;2022-09-09T07:40:41;100986.00;;;25.90
34807;BMP180;18310;55.586;12.286;2022-09-09T07:43:47;100985.00;;;25.90
34807;BMP180;18310;55.586;12.286;2022-09-09T07:46:51;100989.00;;;26.00
34807;BMP180;18310;55.586;12.286;2022-09-09T07:49:54;100993.00;;;26.10
34807;BMP180;18310;55.586;12.286;2022-09-09T07:52:58;100994.00;;;26.20
34807;BMP180;18310;55.586;12.286;2022-09-09T07:56:08;100993.00;;;26.30
34807;BMP180;18310;55.586;12.286;2022-09-09T07:59:13;101003.00;;;26.30
34807;BMP180;18310;55.586;12.286;2022-09-09T08:02:16;101001.00;;;26.40
34807;BMP180;18310;55.586;12.286;2022-09-09T08:05:19;101000.00;;;26.40
34807;BMP180;18310;55.586;12.286;2022-09-09T08:08:24;101000.00;;;26.40
34807;BMP180;18310;55.586;12.286;2022-09-09T08:11:30;101017.00;;;26.50
34807;BMP180;18310;55.586;12.286;2022-09-09T08:14:40;101023.00;;;26.50
34807;BMP180;18310;55.586;12.286;2022-09-09T08:17:43;101009.00;;;26.60
34807;BMP180;18310;55.586;12.286;2022-09-09T08:20:46;101016.00;;;26.70
34807;BMP180;18310;55.586;12.286;2022-09-09T08:23:52;101023.00;;;26.70
34807;BMP180;18310;55.586;12.286;2022-09-09T08:27:00;101034.00;;;26.80
34807;BMP180;18310;55.586;12.286;2022-09-09T08:30:05;101027.00;;;26.80
34807;BMP180;18310;55.586;12.286;2022-09-09T08:33:09;101035.00;;;27.00
34807;BMP180;18310;55.586;12.286;2022-09-09T08:36:15;101030.00;;;27.10
34807;BMP180;18310;55.586;12.286;2022-09-09T08:39:21;101038.00;;;27.20
34807;BMP180;18310;55.586;12.286;2022-09-09T08:42:36;101040.00;;;27.30
34807;BMP180;18310;55.586;12.286;2022-09-09T08:45:55;101039.00;;;27.40
34807;BMP180;18310;55.586;12.286;2022-09-09T08:49:14;101041.00;;;27.40
34807;BMP180;18310;55.586;12.286;2022-09-09T08:52:25;101041.00;;;27.40
34807;BMP180;18310;55.586;12.286;2022-09-09T08:55:40;101044.00;;;27.50
34807;BMP180;18310;55.586;12.286;2022-09-09T08:58:49;101050.00;;;27.60
34807;BMP180;18310;55.586;12.286;2022-09-09T09:02:07;101060.00;;;27.80
34807;BMP180;18310;55.586;12.286;2022-09-09T09:05:26;101055.00;;;27.90
34807;BMP180;18310;55.586;12.286;2022-09-09T09:08:37;101056.00;;;27.90
34807;BMP180;18310;55.586;12.286;2022-09-09T09:11:48;101052.00;;;28.00
34807;BMP180;18310;55.586;12.286;2022-09-09T09:14:54;101059.00;;;28.00
34807;BMP180;18310;55.586;12.286;2022-09-09T09:17:59;101060.00;;;28.00
34807;BMP180;18310;55.586;12.286;2022-09-09T09:21:11;101056.00;;;28.10
34807;BMP180;18310;55.586;12.286;2022-09-09T09:24:20;101057.00;;;28.20
34807;BMP180;18310;55.586;12.286;2022-09-09T09:27:33;101067.00;;;28.30
34807;BMP180;18310;55.586;12.286;2022-09-09T09:30:44;101061.00;;;28.30
34807;BMP180;18310;55.586;12.286;2022-09-09T09:33:52;101068.00;;;28.40
34807;BMP180;18310;55.586;12.286;2022-09-09T09:36:58;101077.00;;;28.60
34807;BMP180;18310;55.586;12.286;2022-09-09T09:40:10;101079.00;;;28.70
34807;BMP180;18310;55.586;12.286;2022-09-09T09:43:23;101081.00;;;28.80
34807;BMP180;18310;55.586;12.286;2022-09-09T09:46:28;101083.00;;;28.90
34807;BMP180;18310;55.586;12.286;2022-09-09T09:49:32;101087.00;;;29.00
34807;BMP180;18310;55.586;12.286;2022-09-09T09:52:35;101088.00;;;29.20
34807;BMP180;18310;55.586;12.286;2022-09-09T09:55:52;101093.00;;;29.30
34807;BMP180;18310;55.586;12.286;2022-09-09T09:58:56;101093.00;;;29.40
34807;BMP180;18310;55.586;12.286;2022-09-09T10:02:19;101087.00;;;29.50
34807;BMP180;18310;55.586;12.286;2022-09-09T10:05:26;101086.00;;;29.50
34807;BMP180;18310;55.586;12.286;2022-09-09T10:08:45;101083.00;;;29.60
34807;BMP180;18310;55.586;12.286;2022-09-09T10:12:01;101087.00;;;29.60
34807;BMP180;18310;55.586;12.286;2022-09-09T10:15:28;101090.00;;;29.60
34807;BMP180;18310;55.586;12.286;2022-09-09T10:18:49;101099.00;;;29.50
34807;BMP180;18310;55.586;12.286;2022-09-09T10:22:25;101094.00;;;29.30
34807;BMP180;18310;55.586;12.286;2022-09-09T10:25:51;101107.00;;;29.20
34807;BMP180;18310;55.586;12.286;2022-09-09T10:32:40;101116.00;;;29.10
34807;BMP180;18310;55.586;12.286;2022-09-09T10:35:52;101110.00;;;29.10
34807;BMP180;18310;55.586;12.286;2022-09-09T10:39:04;101118.00;;;29.10
34807;BMP180;18310;55.586;12.286;2022-09-09T10:42:12;101107.00;;;29.20
34807;BMP180;18310;55.586;12.286;2022-09-09T10:45:21;101114.00;;;29.20
34807;BMP180;18310;55.586;12.286;2022-09-09T10:48:38;101123.00;;;29.20
34807;BMP180;18310;55.586;12.286;2022-09-09T10:51:57;101117.00;;;29.00
34807;BMP180;18310;55.586;12.286;2022-09-09T10:55:13;101122.00;;;28.90
34807;BMP180;18310;55.586;12.286;2022-09-09T10:58:23;101132.00;;;28.90
34807;BMP180;18310;55.586;12.286;2022-09-09T11:01:40;101131.00;;;28.80
34807;BMP180;18310;55.586;12.286;2022-09-09T11:04:53;101139.00;;;28.70
34807;BMP180;18310;55.586;12.286;2022-09-09T11:08:04;101140.00;;;28.80
34807;BMP180;18310;55.586;12.286;2022-09-09T11:11:17;101145.00;;;28.90
34807;BMP180;18310;55.586;12.286;2022-09-09T11:14:28;101143.00;;;29.00
34807;BMP180;18310;55.586;12.286;2022-09-09T11:17:46;101143.00;;;29.10
34807;BMP180;18310;55.586;12.286;2022-09-09T11:20:58;101149.00;;;29.30
34807;BMP180;18310;55.586;12.286;2022-09-09T11:24:10;101155.00;;;29.30
34807;BMP180;18310;55.586;12.286;2022-09-09T11:27:20;101151.00;;;29.20
34807;BMP180;18310;55.586;12.286;2022-09-09T11:30:36;101158.00;;;29.20
34807;BMP180;18310;55.586;12.286;2022-09-09T11:34:21;101157.00;;;29.10
34807;BMP180;18310;55.586;12.286;2022-09-09T11:37:53;101155.00;;;29.00
34807;BMP180;18310;55.586;12.286;2022-09-09T11:41:10;101164.00;;;28.90
34807;BMP180;18310;55.586;12.286;2022-09-09T11:44:28;101169.00;;;28.80
34807;BMP180;18310;55.586;12.286;2022-09-09T11:47:33;101172.00;;;28.80
34807;BMP180;18310;55.586;12.286;2022-09-09T11:50:45;101176.00;;;28.80
34807;BMP180;18310;55.586;12.286;2022-09-09T11:54:00;101170.00;;;28.80
34807;BMP180;18310;55.586;12.286;2022-09-09T11:57:25;101185.00;;;28.90
34807;BMP180;18310;55.586;12.286;2022-09-09T12:00:36;101175.00;;;28.90
34807;BMP180;18310;55.586;12.286;2022-09-09T12:03:45;101180.00;;;29.00
34807;BMP180;18310;55.586;12.286;2022-09-09T12:06:53;101185.00;;;29.10
34807;BMP180;18310;55.586;12.286;2022-09-09T12:10:02;101191.00;;;29.20
34807;BMP180;18310;55.586;12.286;2022-09-09T12:13:19;101184.00;;;29.20
34807;BMP180;18310;55.586;12.286;2022-09-09T12:16:33;101188.00;;;29.10
34807;BMP180;18310;55.586;12.286;2022-09-09T12:19:36;101192.00;;;29.00
34807;BMP180;18310;55.586;12.286;2022-09-09T12:22:58;101183.00;;;28.90
34807;BMP180;18310;55.586;12.286;2022-09-09T12:26:17;101176.00;;;28.70
34807;BMP180;18310;55.586;12.286;2022-09-09T12:29:41;101179.00;;;28.60
34807;BMP180;18310;55.586;12.286;2022-09-09T12:32:46;101189.00;;;28.50
34807;BMP180;18310;55.586;12.286;2022-09-09T12:35:55;101188.00;;;28.50
34807;BMP180;18310;55.586;12.286;2022-09-09T12:39:19;101200.00;;;28.40
34807;BMP180;18310;55.586;12.286;2022-09-09T12:42:31;101208.00;;;28.40
34807;BMP180;18310;55.586;12.286;2022-09-09T12:45:45;101210.00;;;28.30
34807;BMP180;18310;55.586;12.286;2022-09-09T12:48:56;101209.00;;;28.20
34807;BMP180;18310;55.586;12.286;2022-09-09T12:52:04;101202.00;;;28.10
34807;BMP180;18310;55.586;12.286;2022-09-09T12:55:19;101201.00;;;28.00
34807;BMP180;18310;55.586;12.286;2022-09-09T12:58:24;101204.00;;;27.90
34807;BMP180;18310;55.586;12.286;2022-09-09T13:01:32;101200.00;;;28.00
34807;BMP180;18310;55.586;12.286;2022-09-09T13:04:36;101200.00;;;28.00
34807;BMP180;18310;55.586;12.286;2022-09-09T13:07:39;101197.00;;;28.00
34807;BMP180;18310;55.586;12.286;2022-09-09T13:10:47;101205.00;;;28.00
34807;BMP180;18310;55.586;12.286;2022-09-09T13:13:57;101190.00;;;27.90
34807;BMP180;18310;55.586;12.286;2022-09-09T13:17:05;101195.00;;;27.80
34807;BMP180;18310;55.586;12.286;2022-09-09T13:20:17;101180.00;;;27.70
34807;BMP180;18310;55.586;12.286;2022-09-09T13:23:21;101185.00;;;27.60
34807;BMP180;18310;55.586;12.286;2022-09-09T13:26:26;101183.00;;;27.60
34807;BMP180;18310;55.586;12.286;2022-09-09T13:29:32;101173.00;;;27.60
34807;BMP180;18310;55.586;12.286;2022-09-09T13:32:36;101184.00;;;27.50
34807;BMP180;18310;55.586;12.286;2022-09-09T13:35:47;101196.00;;;27.50
34807;BMP180;18310;55.586;12.286;2022-09-09T13:38:57;101201.00;;;27.40
34807;BMP180;18310;55.586;12.286;2022-09-09T13:42:03;101205.00;;;27.40
34807;BMP180;18310;55.586;12.286;2022-09-09T13:45:19;101204.00;;;27.40
34807;BMP180;18310;55.586;12.286;2022-09-09T13:48:27;101201.00;;;27.30
34807;BMP180;18310;55.586;12.286;2022-09-09T13:51:37;101212.00;;;27.20
34807;BMP180;18310;55.586;12.286;2022-09-09T13:54:41;101210.00;;;27.10
34807;BMP180;18310;55.586;12.286;2022-09-09T13:57:52;101206.00;;;27.10
34807;BMP180;18310;55.586;12.286;2022-09-09T14:00:56;101215.00;;;27.10
34807;BMP180;18310;55.586;12.286;2022-09-09T14:04:02;101206.00;;;27.10
34807;BMP180;18310;55.586;12.286;2022-09-09T14:07:05;101216.00;;;27.10
34807;BMP180;18310;55.586;12.286;2022-09-09T14:10:10;101203.00;;;27.10
34807;BMP180;18310;55.586;12.286;2022-09-09T14:13:13;101204.00;;;27.10
34807;BMP180;18310;55.586;12.286;2022-09-09T14:16:18;101212.00;;;27.10
34807;BMP180;18310;55.586;12.286;2022-09-09T14:19:23;101206.00;;;27.10
34807;BMP180;18310;55.586;12.286;2022-09-09T14:22:26;101205.00;;;27.10
34807;BMP180;18310;55.586;12.286;2022-09-09T14:25:30;101207.00;;;27.10
34807;BMP180;18310;55.586;12.286;2022-09-09T14:28:36;101209.00;;;27.10
34807;BMP180;18310;55.586;12.286;2022-09-09T14:31:55;101201.00;;;27.10
34807;BMP180;18310;55.586;12.286;2022-09-09T14:35:00;101202.00;;;27.00
34807;BMP180;18310;55.586;12.286;2022-09-09T14:38:04;101193.00;;;26.90
34807;BMP180;18310;55.586;12.286;2022-09-09T14:41:09;101213.00;;;26.90
34807;BMP180;18310;55.586;12.286;2022-09-09T14:44:13;101210.00;;;26.80
34807;BMP180;18310;55.586;12.286;2022-09-09T14:47:19;101200.00;;;26.80
34807;BMP180;18310;55.586;12.286;2022-09-09T14:50:24;101202.00;;;26.80
34807;BMP180;18310;55.586;12.286;2022-09-09T14:53:28;101208.00;;;26.70
34807;BMP180;18310;55.586;12.286;2022-09-09T14:56:33;101208.00;;;26.70
34807;BMP180;18310;55.586;12.286;2022-09-09T14:59:37;101206.00;;;26.70
34807;BMP180;18310;55.586;12.286;2022-09-09T15:02:41;101203.00;;;26.80
34807;BMP180;18310;55.586;12.286;2022-09-09T15:05:45;101209.00;;;26.80
34807;BMP180;18310;55.586;12.286;2022-09-09T15:08:52;101206.00;;;26.90
34807;BMP180;18310;55.586;12.286;2022-09-09T15:11:55;101218.00;;;26.90
34807;BMP180;18310;55.586;12.286;2022-09-09T15:14:58;101210.00;;;26.80
34807;BMP180;18310;55.586;12.286;2022-09-09T15:18:04;101213.00;;;26.80
34807;BMP180;18310;55.586;12.286;2022-09-09T15:21:09;101207.00;;;26.80
34807;BMP180;18310;55.586;12.286;2022-09-09T15:24:13;101207.00;;;26.80
34807;BMP180;18310;55.586;12.286;2022-09-09T15:27:16;101208.00;;;26.90
34807;BMP180;18310;55.586;12.286;2022-09-09T15:30:23;101213.00;;;26.90
34807;BMP180;18310;55.586;12.286;2022-09-09T15:33:26;101212.00;;;26.90
34807;BMP180;18310;55.586;12.286;2022-09-09T15:36:34;101209.00;;;26.90
34807;BMP180;18310;55.586;12.286;2022-09-09T15:39:38;101220.00;;;26.90
34807;BMP180;18310;55.586;12.286;2022-09-09T15:42:41;101213.00;;;26.90
34807;BMP180;18310;55.586;12.286;2022-09-09T15:45:49;101213.00;;;26.80
34807;BMP180;18310;55.586;12.286;2022-09-09T15:48:58;101217.00;;;26.80
34807;BMP180;18310;55.586;12.286;2022-09-09T15:52:03;101222.00;;;26.90
34807;BMP180;18310;55.586;12.286;2022-09-09T15:55:07;101210.00;;;26.90
34807;BMP180;18310;55.586;12.286;2022-09-09T15:58:11;101209.00;;;26.90
34807;BMP180;18310;55.586;12.286;2022-09-09T16:01:14;101215.00;;;26.90
34807;BMP180;18310;55.586;12.286;2022-09-09T16:04:19;101212.00;;;26.80
34807;BMP180;18310;55.586;12.286;2022-09-09T16:07:27;101216.00;;;26.80
34807;BMP180;18310;55.586;12.286;2022-09-09T16:10:30;101214.00;;;26.80
34807;BMP180;18310;55.586;12.286;2022-09-09T16:13:34;101224.00;;;26.80
34807;BMP180;18310;55.586;12.286;2022-09-09T16:16:40;101229.00;;;26.80
34807;BMP180;18310;55.586;12.286;2022-09-09T16:19:43;101235.00;;;26.80
34807;BMP180;18310;55.586;12.286;2022-09-09T16:22:49;101236.00;;;26.80
34807;BMP180;18310;55.586;12.286;2022-09-09T16:25:54;101237.00;;;26.80
34807;BMP180;18310;55.586;12.286;2022-09-09T16:28:58;101239.00;;;26.80
34807;BMP180;18310;55.586;12.286;2022-09-09T16:32:04;101242.00;;;26.80
34807;BMP180;18310;55.586;12.286;2022-09-09T16:35:08;101242.00;;;26.80
34807;BMP180;18310;55.586;12.286;2022-09-09T16:38:14;101242.00;;;26.80
34807;BMP180;18310;55.586;12.286;2022-09-09T16:41:18;101237.00;;;26.80
34807;BMP180;18310;55.586;12.286;2022-09-09T16:44:22;101244.00;;;26.70
34807;BMP180;18310;55.586;12.286;2022-09-09T16:47:25;101247.00;;;26.70
34807;BMP180;18310;55.586;12.286;2022-09-09T16:50:31;101245.00;;;26.70
34807;BMP180;18310;55.586;12.286;2022-09-09T16:53:35;101248.00;;;26.70
34807;BMP180;18310;55.586;12.286;2022-09-09T16:56:41;101255.00;;;26.60
34807;BMP180;18310;55.586;12.286;2022-09-09T16:59:45;101253.00;;;26.60
34807;BMP180;18310;55.586;12.286;2022-09-09T17:02:51;101252.00;;;26.50
34807;BMP180;18310;55.586;12.286;2022-09-09T17:05:54;101261.00;;;26.50
34807;BMP180;18310;55.586;12.286;2022-09-09T17:09:04;101259.00;;;26.50
34807;BMP180;18310;55.586;12.286;2022-09-09T17:12:08;101262.00;;;26.40
34807;BMP180;18310;55.586;12.286;2022-09-09T17:15:12;101262.00;;;26.40
34807;BMP180;18310;55.586;12.286;2022-09-09T17:18:15;101267.00;;;26.40
34807;BMP180;18310;55.586;12.286;2022-09-09T17:21:22;101260.00;;;26.40
34807;BMP180;18310;55.586;12.286;2022-09-09T17:24:27;101261.00;;;26.40
34807;BMP180;18310;55.586;12.286;2022-09-09T17:27:31;101254.00;;;26.30
34807;BMP180;18310;55.586;12.286;2022-09-09T17:30:37;101255.00;;;26.30
34807;BMP180;18310;55.586;12.286;2022-09-09T17:33:43;101261.00;;;26.20
34807;BMP180;18310;55.586;12.286;2022-09-09T17:36:48;101256.00;;;26.20
34807;BMP180;18310;55.586;12.286;2022-09-09T17:39:53;101258.00;;;26.10